الصفحة الرئيسية
METAR-TAF:

METAR-TAF

مطار :

مطار كوتوكا الدولي

أكرا, غانا

دائرة عرض: 05-36N, خط طول: 000-10W, ارتفاع: 68 متر

مراقبة الطقس الحالي

تاريخ ووقت الإصدار 1ساعة و 1 دقيقة قبل الساعة 12:00UTC
ريح 12 عقدة من الغرب/الجنوب الغربي
درجة الحرارة 34°درجة مئوية
الرطوبة 53%
ضغط 1009 hPa
الرؤية: 5000 متر
غيوم قليلة على ارتفاع 1500 قدم
غيوم متفرقة على ارتفاع 3800 قدم
العجاج,

METAR: DGAA 231200Z 24012KT 5000 HZ FEW015 SCT038 34/23 Q1009 NOSIG

زمن: 13:01 (13:01 UTC)

توقعات

تاريخ ووقت الإصدار 2ساعات و 1 دقيقة قبل الساعة 11:00UTC
التوقعات صالحة من23 الساعة 12 UTC إلى 24 الساعة 18 UTC
ريح 10 عقدة من الجنوب الغربي
الرؤية: 5000 متر
غيوم متفرقة على ارتفاع 2000 قدم
العجاج
نظرية الاحتمالات 30% :
مؤقت
من 23 الساعة 13 UTC إلى 23 الساعة 17 UTC
الرؤية: 6000 متر
غيوم قليلة على ارتفاع 3000 قدم, مزنة ركامية.
غيوم مفككة على ارتفاع 1000 قدم
عاصفة رعدية, مطر
أصبح
من 23 الساعة 21 UTC إلى 23 الساعة 23 UTC
الرؤية 10 كم أو أكثر
الغيوم لا تقل 1500 م ولا وجود لمزنة ركامية السحاب الأسود

TAF: DGAA 231100Z 2312/2418 23010KT 5000 HZ SCT020 PROB30 TEMPO 2313/2317 6000 TSRA FEW030CB BKN010 BECMG 2321/2323 CAVOK

أرصاد الطقس والتوقعات من أكثر من 4000 مطار (تقارير الطقس للمطار METAR والتنبؤ بالطقس بالمطارTAF).

المحطات المتاحة هي النقط الصفراء والحمراء على الخريطة.

حرك المؤشر فوق النقطة لمعرفة اسم المحطة.

ثم انقر لمعرفة أرصاد وتوقعات الطقس.

لتغيير الخارطة: اضغط على الأزرار الخضراء مع رمز الصليب الأسود للتكبير. على الزر الأخضر مع شرطة للتصغير، أو على الأسهم الخضراء للخرائط المجاورة.


METAR-TAF: